Time;durP1;ratioP1;P1;durP2;ratioP2;P2;SDS_P1;SDS_P2;PMS_P1;PMS_P2;Temp;Humidity;BMP_temperature;BMP_pressure;BME280_temperature;BME280_humidity;BME280_pressure;Samples;Min_cycle;Max_cycle;Signal;HPM_P1;HPM_P2
2022/12/04 00:01:21;;;;;;;23.60;2.37;;;26.30;99.90;;;;;;4933965;29;20752;-69
2022/12/04 00:03:51;;;;;;;5.50;1.30;;;25.70;99.90;;;;;;4923825;29;20180;-72
2022/12/04 00:06:20;;;;;;;3.33;1.17;;;25.00;99.90;;;;;;4946209;29;20176;-69
2022/12/04 00:08:48;;;;;;;4.70;1.20;;;24.80;99.90;;;;;;4938460;29;20196;-68
2022/12/04 00:11:19;;;;;;;3.80;1.77;;;25.80;99.90;;;;;;4932519;29;20220;-69
2022/12/04 00:13:46;;;;;;;10.10;1.60;;;27.20;99.90;;;;;;4933325;29;20209;-68
2022/12/04 00:16:17;;;;;;;10.80;1.13;;;27.90;99.90;;;;;;4933889;29;20207;-70
2022/12/04 00:18:44;;;;;;;4.30;1.10;;;28.10;99.90;;;;;;4934003;29;20181;-70
2022/12/04 00:21:14;;;;;;;3.93;1.27;;;28.50;99.90;;;;;;4933416;29;20567;-70
2022/12/04 00:23:43;;;;;;;12.37;2.23;;;28.30;99.90;;;;;;4933641;29;20187;-70
2022/12/04 00:26:14;;;;;;;19.97;2.17;;;28.10;99.90;;;;;;4917388;29;20192;-69
2022/12/04 00:28:42;;;;;;;14.53;1.87;;;28.00;99.90;;;;;;4936698;29;20187;-69
2022/12/04 00:31:16;;;;;;;5.93;1.10;;;27.10;99.90;;;;;;4937422;29;20224;-69
2022/12/04 00:33:44;;;;;;;3.30;1.23;;;26.80;99.90;;;;;;4936833;29;20192;-69
2022/12/04 00:36:14;;;;;;;21.70;1.80;;;26.40;99.90;;;;;;4935677;29;20693;-69
2022/12/04 00:38:43;;;;;;;77.77;6.00;;;25.50;99.90;;;;;;4937392;29;20283;-69
2022/12/04 00:41:12;;;;;;;8.00;1.70;;;25.20;99.90;;;;;;4936971;29;20201;-70
2022/12/04 00:43:40;;;;;;;12.97;1.30;;;25.10;99.90;;;;;;4936816;29;20651;-70
2022/12/04 00:46:08;;;;;;;5.30;1.33;;;25.20;99.90;;;;;;4937007;29;20192;-70
2022/12/04 00:48:36;;;;;;;10.03;1.30;;;25.40;99.90;;;;;;4936930;29;20228;-70
2022/12/04 00:51:05;;;;;;;8.43;1.20;;;25.60;99.90;;;;;;4936428;29;20251;-70
2022/12/04 00:53:33;;;;;;;2.10;0.60;;;26.00;99.90;;;;;;4937224;29;20192;-69
2022/12/04 00:56:04;;;;;;;6.63;1.27;;;25.90;99.90;;;;;;4936874;29;20212;-69
2022/12/04 00:58:32;;;;;;;4.63;0.93;;;25.80;99.90;;;;;;4935343;29;20194;-69
2022/12/04 01:01:09;;;;;;;1.93;0.83;;;25.90;99.90;;;;;;4936725;29;20235;-73
2022/12/04 01:03:36;;;;;;;4.00;1.03;;;26.00;99.90;;;;;;4937159;29;20702;-73
2022/12/04 01:06:05;;;;;;;9.07;1.70;;;26.60;99.90;;;;;;4936440;29;20646;-74
2022/12/04 01:08:33;;;;;;;4.17;1.20;;;26.90;99.90;;;;;;4937156;29;20187;-73
2022/12/04 01:11:04;;;;;;;5.73;1.37;;;26.80;99.90;;;;;;4937267;29;20230;-73
2022/12/04 01:13:31;;;;;;;7.17;1.33;;;26.50;99.90;;;;;;4936757;29;20181;-72
2022/12/04 01:15:59;;;;;;;7.10;1.63;;;26.20;99.90;;;;;;4936864;29;20208;-73
2022/12/04 01:18:26;;;;;;;2.93;1.37;;;26.20;99.90;;;;;;4936636;29;20233;-73
2022/12/04 01:20:53;;;;;;;11.60;1.73;;;27.00;99.90;;;;;;4936231;29;20275;-70
2022/12/04 01:23:21;;;;;;;2.90;1.20;;;27.30;99.90;;;;;;4936565;29;20243;-69
2022/12/04 01:25:56;;;;;;;5.00;1.47;;;27.20;99.90;;;;;;4936109;29;20216;-69
2022/12/04 01:28:24;;;;;;;1.60;0.90;;;28.10;99.90;;;;;;4935806;29;20188;-68
2022/12/04 01:31:05;;;;;;;3.73;1.20;;;28.70;99.90;;;;;;4934752;29;20209;-67
2022/12/04 01:33:35;;;;;;;2.50;1.00;;;29.00;99.90;;;;;;4936380;29;20185;-68
2022/12/04 01:36:04;;;;;;;3.43;0.93;;;29.20;99.90;;;;;;4936025;29;20220;-69
2022/12/04 01:38:33;;;;;;;12.70;1.53;;;28.50;99.90;;;;;;4935630;29;20592;-69
2022/12/04 01:41:01;;;;;;;1.93;0.93;;;28.30;99.90;;;;;;4936076;29;20267;-70
2022/12/04 01:43:31;;;;;;;3.57;0.90;;;28.10;99.90;;;;;;4936247;29;20191;-69
2022/12/04 01:46:00;;;;;;;3.03;0.83;;;28.00;99.90;;;;;;4935744;29;20181;-70
2022/12/04 01:48:39;;;;;;;3.80;1.10;;;28.80;99.90;;;;;;4935576;29;20228;-69
2022/12/04 01:51:25;;;;;;;10.03;1.60;;;28.70;99.90;;;;;;4936070;29;20223;-70
2022/12/04 01:53:56;;;;;;;6.10;1.13;;;27.70;99.90;;;;;;4935876;29;20184;-70
2022/12/04 01:56:30;;;;;;;3.97;1.20;;;28.20;99.90;;;;;;4935369;29;20176;-70
2022/12/04 01:58:59;;;;;;;3.13;1.23;;;29.00;99.50;;;;;;4936032;29;20200;-70
2022/12/04 02:01:33;;;;;;;3.33;1.20;;;28.30;99.90;;;;;;4935672;29;20196;-70
2022/12/04 02:04:02;;;;;;;8.47;1.40;;;27.60;99.90;;;;;;4934983;29;20243;-70
2022/12/04 02:06:29;;;;;;;1.20;1.00;;;27.40;99.90;;;;;;4935703;29;20635;-70
2022/12/04 02:08:57;;;;;;;12.23;1.50;;;27.00;99.90;;;;;;4935760;29;20181;-70
2022/12/04 02:11:38;;;;;;;8.53;1.40;;;26.80;99.90;;;;;;4935447;29;20216;-69
2022/12/04 02:14:21;;;;;;;3.53;1.17;;;26.90;99.90;;;;;;4935816;29;20212;-71
2022/12/04 02:17:11;;;;;;;2.80;1.23;;;27.40;99.90;;;;;;4935559;29;20185;-70
2022/12/04 02:19:57;;;;;;;1.87;1.23;;;27.80;99.90;;;;;;4927749;29;20283;-70
2022/12/04 02:22:40;;;;;;;6.20;1.40;;;28.00;99.00;;;;;;4918142;29;20184;-70
2022/12/04 02:25:28;;;;;;;4.50;1.10;;;27.90;99.90;;;;;;4934275;29;20188;-70
2022/12/04 02:27:59;;;;;;;3.03;1.10;;;27.70;99.90;;;;;;4927669;29;20220;-69
2022/12/04 02:30:28;;;;;;;2.13;1.33;;;27.20;99.90;;;;;;4935455;29;20201;-68
2022/12/04 02:33:21;;;;;;;1.83;1.43;;;27.20;99.90;;;;;;4934391;29;20185;-68
2022/12/04 02:35:58;;;;;;;5.97;1.77;;;28.10;99.90;;;;;;4945626;29;20250;-70
2022/12/04 02:39:08;;;;;;;3.70;1.50;;;29.30;99.90;;;;;;4942619;29;20231;-69
2022/12/04 02:41:48;;;;;;;2.73;1.30;;;29.90;95.20;;;;;;4926585;29;20219;-69
2022/12/04 02:44:42;;;;;;;5.33;1.70;;;29.00;94.40;;;;;;4935238;29;20252;-73
2022/12/04 02:47:14;;;;;;;5.70;1.50;;;29.20;95.80;;;;;;4934884;29;20242;-69
2022/12/04 02:49:53;;;;;;;3.20;1.53;;;29.20;94.00;;;;;;4932849;29;20332;-70
2022/12/04 02:52:25;;;;;;;5.00;1.60;;;29.40;93.60;;;;;;4935023;29;20203;-75
2022/12/04 02:54:59;;;;;;;3.97;1.50;;;29.60;91.10;;;;;;4934875;29;20200;-71
2022/12/04 02:57:33;;;;;;;14.87;2.00;;;29.70;93.30;;;;;;4934578;29;20235;-70
2022/12/04 03:00:04;;;;;;;7.30;1.50;;;29.80;93.90;;;;;;4933288;29;20196;-69
2022/12/04 03:02:37;;;;;;;4.60;1.37;;;30.00;89.80;;;;;;4932214;29;20279;-69
2022/12/04 03:05:12;;;;;;;3.90;1.43;;;30.10;91.80;;;;;;4935003;29;20180;-71
2022/12/04 03:08:08;;;;;;;3.57;1.20;;;30.40;94.80;;;;;;4935414;29;20529;-71
2022/12/04 03:10:42;;;;;;;2.87;1.30;;;30.80;93.00;;;;;;4931592;29;20798;-70
2022/12/04 03:13:31;;;;;;;3.43;1.30;;;30.80;86.20;;;;;;4931866;29;20522;-71
2022/12/04 03:16:04;;;;;;;4.43;1.50;;;30.10;80.80;;;;;;4934975;29;20667;-71
2022/12/04 03:18:54;;;;;;;3.10;1.50;;;29.70;84.40;;;;;;4934419;29;20738;-71
2022/12/04 03:21:28;;;;;;;3.73;1.50;;;29.90;97.20;;;;;;4925979;29;20605;-71
2022/12/04 03:24:04;;;;;;;3.63;1.80;;;30.50;90.90;;;;;;4933075;29;20565;-69
2022/12/04 03:26:41;;;;;;;4.10;1.80;;;30.80;91.70;;;;;;4934252;29;20531;-70
2022/12/04 03:29:08;;;;;;;2.90;1.43;;;28.90;79.50;;;;;;4915984;29;20546;-70
2022/12/04 03:31:46;;;;;;;4.03;1.70;;;28.50;89.50;;;;;;4915704;29;20209;-71
2022/12/04 03:34:22;;;;;;;7.63;1.40;;;28.60;93.80;;;;;;4915297;29;20295;-69
2022/12/04 03:36:55;;;;;;;2.73;1.50;;;28.40;93.90;;;;;;4917420;29;20179;-73
2022/12/04 03:39:37;;;;;;;2.20;1.20;;;28.40;92.60;;;;;;4940551;29;20180;-71
2022/12/04 03:42:17;;;;;;;3.43;1.10;;;28.10;91.00;;;;;;4953853;29;20179;-70
2022/12/04 03:45:07;;;;;;;3.97;1.53;;;28.10;95.30;;;;;;4953773;29;20241;-71
2022/12/04 03:47:53;;;;;;;3.07;1.60;;;28.90;96.80;;;;;;4952525;29;20290;-71
2022/12/04 03:50:50;;;;;;;3.27;1.47;;;29.00;97.50;;;;;;4943693;29;20557;-70
2022/12/04 03:53:34;;;;;;;4.83;1.17;;;29.80;94.30;;;;;;4927668;29;20201;-71
2022/12/04 03:56:19;;;;;;;2.93;1.00;;;29.80;95.30;;;;;;4932686;29;20713;-71
2022/12/04 03:58:51;;;;;;;2.77;1.27;;;29.70;94.70;;;;;;4933458;29;20188;-71
2022/12/04 04:01:22;;;;;;;6.03;1.50;;;29.80;98.60;;;;;;4934591;29;20197;-71
2022/12/04 04:03:55;;;;;;;1.80;0.87;;;30.00;99.90;;;;;;4935309;29;20259;-72
2022/12/04 04:06:31;;;;;;;6.30;1.50;;;29.90;96.30;;;;;;4937779;29;20658;-74
2022/12/04 04:09:06;;;;;;;3.00;0.90;;;30.00;99.90;;;;;;4937998;29;20283;-72
2022/12/04 04:12:02;;;;;;;9.10;1.13;;;30.10;95.80;;;;;;4938141;29;20216;-74
2022/12/04 04:26:35;;;;;;;4.97;1.30;;;28.20;99.90;;;;;;4925494;29;20698;-70
2022/12/04 04:29:03;;;;;;;4.17;1.20;;;28.00;99.90;;;;;;4920813;29;20185;-71
2022/12/04 04:31:37;;;;;;;4.03;0.97;;;28.40;99.90;;;;;;4937387;29;20227;-76
2022/12/04 04:34:23;;;;;;;2.07;1.10;;;28.80;99.90;;;;;;4937406;29;20222;-70
2022/12/04 04:37:13;;;;;;;9.20;1.37;;;29.10;99.90;;;;;;4937495;29;20188;-70
2022/12/04 04:39:52;;;;;;;5.80;1.10;;;29.10;99.90;;;;;;4911373;29;20189;-71
2022/12/04 04:42:50;;;;;;;3.07;1.17;;;29.10;99.90;;;;;;4937030;29;20195;-74
2022/12/04 04:45:40;;;;;;;3.93;1.80;;;28.90;99.90;;;;;;4936133;29;20199;-72
2022/12/04 04:48:23;;;;;;;3.23;1.23;;;29.00;99.90;;;;;;4936629;29;20702;-71
2022/12/04 04:50:51;;;;;;;7.80;1.07;;;29.00;99.90;;;;;;4936688;29;20216;-73
2022/12/04 04:53:27;;;;;;;2.27;1.00;;;28.80;99.90;;;;;;4937006;29;20180;-69
2022/12/04 04:55:55;;;;;;;4.43;1.10;;;29.00;99.90;;;;;;4937026;29;20643;-75
2022/12/04 04:58:22;;;;;;;3.37;1.07;;;28.80;99.90;;;;;;4937114;29;20177;-71
2022/12/04 05:01:06;;;;;;;3.23;1.07;;;28.60;99.90;;;;;;4935860;29;20181;-71
2022/12/04 05:03:34;;;;;;;1.23;0.97;;;28.70;99.90;;;;;;4942445;29;20235;-71
2022/12/04 05:06:02;;;;;;;2.17;1.00;;;28.50;99.90;;;;;;4937311;29;20193;-71
2022/12/04 05:08:29;;;;;;;3.07;1.00;;;28.30;99.90;;;;;;4935320;29;20208;-70
2022/12/04 05:10:56;;;;;;;4.67;1.30;;;28.60;99.90;;;;;;4936450;29;20322;-71
2022/12/04 05:13:24;;;;;;;1.37;0.90;;;28.40;99.90;;;;;;4935596;29;20181;-72
2022/12/04 05:16:01;;;;;;;4.50;1.40;;;28.20;99.90;;;;;;4936268;29;20667;-77
2022/12/04 05:18:30;;;;;;;6.20;1.50;;;28.10;99.90;;;;;;4936403;29;20184;-71
2022/12/04 05:20:57;;;;;;;5.47;1.10;;;28.20;99.90;;;;;;4936489;29;20197;-71
2022/12/04 05:23:25;;;;;;;3.03;0.90;;;28.50;99.90;;;;;;4935797;29;20217;-72
2022/12/04 05:26:00;;;;;;;5.73;0.87;;;28.40;99.90;;;;;;4935258;29;20710;-71
2022/12/04 05:28:27;;;;;;;3.80;1.00;;;28.30;99.90;;;;;;4936637;29;20183;-71
2022/12/04 05:30:59;;;;;;;2.00;1.13;;;28.10;99.90;;;;;;4936203;29;20611;-71
2022/12/04 05:33:27;;;;;;;2.73;0.97;;;28.30;99.90;;;;;;4936350;29;20201;-72
2022/12/04 05:36:03;;;;;;;4.73;1.07;;;27.80;99.90;;;;;;4936812;29;20181;-71
2022/12/04 05:38:31;;;;;;;2.10;0.80;;;27.80;99.90;;;;;;4936453;29;20543;-71
2022/12/04 05:41:00;;;;;;;5.03;0.93;;;28.00;99.90;;;;;;4917668;29;20173;-70
2022/12/04 05:43:28;;;;;;;2.83;0.93;;;28.10;99.90;;;;;;4927677;29;20203;-72
2022/12/04 05:45:59;;;;;;;4.07;0.93;;;28.10;99.90;;;;;;4935844;29;20251;-71
2022/12/04 05:48:26;;;;;;;3.30;0.80;;;28.00;99.90;;;;;;4936063;29;20241;-74
2022/12/04 05:50:54;;;;;;;4.20;1.10;;;27.90;99.90;;;;;;4936279;29;20212;-73
2022/12/04 05:53:21;;;;;;;5.30;0.77;;;27.80;99.90;;;;;;4935408;29;20181;-70
2022/12/04 05:56:00;;;;;;;3.57;1.10;;;27.70;99.90;;;;;;4936247;29;20192;-71
2022/12/04 05:58:27;;;;;;;3.83;1.10;;;27.40;99.90;;;;;;4936246;29;20181;-71
2022/12/04 06:00:55;;;;;;;2.50;0.83;;;27.40;99.90;;;;;;4935726;29;20212;-70
2022/12/04 06:03:23;;;;;;;3.03;1.00;;;27.60;99.90;;;;;;4935696;29;20301;-70
2022/12/04 06:05:50;;;;;;;7.10;1.60;;;27.80;99.90;;;;;;4935692;29;20794;-75
2022/12/04 06:08:18;;;;;;;2.97;0.90;;;27.60;99.90;;;;;;4935531;29;20191;-70
2022/12/04 06:10:45;;;;;;;5.43;1.23;;;27.50;99.90;;;;;;4935664;29;20295;-70
2022/12/04 06:13:12;;;;;;;5.70;0.80;;;27.50;99.90;;;;;;4935585;29;20193;-70
2022/12/04 06:15:40;;;;;;;4.03;1.13;;;27.30;99.90;;;;;;4935515;29;20643;-71
2022/12/04 06:18:08;;;;;;;3.87;0.90;;;27.30;99.90;;;;;;4934665;29;20181;-72
2022/12/04 06:20:36;;;;;;;5.10;1.40;;;27.50;99.90;;;;;;4935819;29;20665;-71
2022/12/04 06:23:04;;;;;;;7.13;1.03;;;27.50;99.90;;;;;;4933764;29;20196;-72
2022/12/04 06:25:33;;;;;;;3.10;1.00;;;27.50;99.90;;;;;;4939669;29;20180;-72
2022/12/04 06:28:00;;;;;;;2.00;0.90;;;27.30;99.90;;;;;;4936365;29;20180;-70
2022/12/04 06:30:29;;;;;;;3.43;0.97;;;27.00;99.90;;;;;;4935168;29;20209;-70
2022/12/04 06:32:56;;;;;;;1.67;0.73;;;26.70;99.90;;;;;;4935225;29;20196;-70
2022/12/04 06:35:23;;;;;;;3.00;0.90;;;26.70;99.90;;;;;;4935134;29;20260;-69
2022/12/04 06:37:51;;;;;;;5.03;1.00;;;26.50;99.90;;;;;;4935062;29;20188;-70
2022/12/04 06:40:18;;;;;;;2.47;0.83;;;26.30;99.90;;;;;;4935196;29;20187;-70
2022/12/04 06:42:46;;;;;;;2.27;0.70;;;26.30;99.90;;;;;;4935484;29;20643;-74
2022/12/04 06:45:14;;;;;;;3.37;0.93;;;26.30;99.90;;;;;;4934754;29;20191;-74
2022/12/04 06:47:41;;;;;;;2.30;0.80;;;26.10;99.90;;;;;;4935080;29;20695;-72
2022/12/04 06:50:09;;;;;;;3.50;1.00;;;25.70;99.90;;;;;;4935112;29;20168;-71
2022/12/04 06:52:36;;;;;;;4.47;1.00;;;25.70;99.90;;;;;;4934505;29;20188;-74
2022/12/04 06:55:04;;;;;;;3.83;0.83;;;25.60;99.90;;;;;;4920409;29;20185;-79
2022/12/04 06:57:32;;;;;;;6.87;0.73;;;25.40;99.90;;;;;;4935047;29;20184;-70
2022/12/04 06:59:59;;;;;;;4.03;1.00;;;25.50;99.90;;;;;;4917193;29;20184;-71
2022/12/04 07:02:27;;;;;;;3.27;0.80;;;25.50;99.90;;;;;;4934884;29;20216;-71
2022/12/04 07:04:56;;;;;;;2.17;0.80;;;25.40;99.90;;;;;;4934703;29;20181;-74
2022/12/04 07:07:23;;;;;;;3.07;0.87;;;25.40;99.90;;;;;;4934672;29;20184;-74
2022/12/04 07:09:51;;;;;;;2.60;0.80;;;25.40;99.90;;;;;;4934820;29;20684;-76
2022/12/04 07:12:18;;;;;;;3.03;0.67;;;25.30;99.90;;;;;;4934907;29;20227;-70
2022/12/04 07:14:45;;;;;;;2.53;0.70;;;25.40;99.90;;;;;;4934064;29;20200;-70
2022/12/04 07:17:13;;;;;;;5.13;0.67;;;25.50;99.90;;;;;;4934531;29;20200;-69
2022/12/04 07:19:40;;;;;;;3.50;0.70;;;25.40;99.90;;;;;;4934911;29;20608;-71
2022/12/04 07:22:07;;;;;;;4.33;0.80;;;25.20;99.90;;;;;;4933989;29;20718;-76
2022/12/04 07:24:38;;;;;;;3.40;0.80;;;25.20;99.90;;;;;;4934353;29;20603;-74
2022/12/04 07:27:06;;;;;;;6.03;0.90;;;25.10;99.90;;;;;;4933360;29;20181;-71
2022/12/04 07:29:33;;;;;;;2.07;0.80;;;25.00;99.90;;;;;;4933054;29;20227;-75
2022/12/04 07:32:00;;;;;;;6.30;0.90;;;25.00;99.90;;;;;;4934868;29;20235;-80
2022/12/04 07:34:28;;;;;;;1.77;0.70;;;25.00;99.90;;;;;;4934430;29;20192;-73
2022/12/04 07:36:56;;;;;;;6.40;0.90;;;25.00;99.90;;;;;;4933255;29;20275;-73
2022/12/04 07:39:23;;;;;;;3.23;0.80;;;25.00;99.90;;;;;;4933902;29;20184;-72
2022/12/04 07:41:51;;;;;;;3.17;0.83;;;25.00;99.90;;;;;;4934987;29;20181;-72
2022/12/04 07:44:18;;;;;;;3.60;0.80;;;24.90;99.90;;;;;;4933434;29;20268;-78
2022/12/04 07:46:46;;;;;;;4.47;0.90;;;24.80;99.90;;;;;;4934531;29;20195;-75
2022/12/04 07:49:13;;;;;;;4.27;0.87;;;24.70;99.90;;;;;;4934133;29;20224;-71
2022/12/04 07:51:40;;;;;;;1.90;0.70;;;24.50;99.90;;;;;;4934094;29;20219;-70
2022/12/04 07:54:08;;;;;;;2.63;1.00;;;24.50;99.90;;;;;;4934594;29;20177;-70
2022/12/04 07:56:35;;;;;;;2.53;0.80;;;24.40;99.90;;;;;;4934177;29;20268;-70
2022/12/04 07:59:03;;;;;;;6.13;0.93;;;24.30;99.90;;;;;;4932456;29;20725;-77
2022/12/04 08:01:31;;;;;;;2.07;0.90;;;24.10;99.90;;;;;;4934080;29;20189;-70
2022/12/04 08:04:01;;;;;;;3.60;0.83;;;24.20;99.90;;;;;;4934059;29;20259;-74
2022/12/04 08:06:32;;;;;;;4.73;0.83;;;24.20;99.90;;;;;;4933631;29;20204;-70
2022/12/04 08:08:59;;;;;;;4.47;0.90;;;24.00;99.90;;;;;;4934231;29;20195;-70
2022/12/04 08:11:28;;;;;;;4.23;0.87;;;24.00;99.90;;;;;;4934109;29;20596;-76
2022/12/04 08:14:07;;;;;;;2.37;1.00;;;24.10;99.90;;;;;;4933892;29;20173;-73
2022/12/04 08:16:35;;;;;;;4.83;1.10;;;24.10;99.90;;;;;;4934409;29;20635;-72
2022/12/04 08:19:02;;;;;;;4.00;1.00;;;24.10;99.90;;;;;;4933871;29;20179;-71
2022/12/04 08:21:31;;;;;;;5.07;1.20;;;23.90;99.90;;;;;;4933215;29;20181;-71
2022/12/04 08:24:00;;;;;;;4.43;1.20;;;23.70;99.90;;;;;;4940351;29;20250;-70
2022/12/04 08:26:30;;;;;;;3.57;0.90;;;23.70;99.90;;;;;;4933444;29;20263;-70
2022/12/04 08:28:58;;;;;;;3.80;1.00;;;23.60;99.90;;;;;;4933540;29;20177;-69
2022/12/04 08:31:27;;;;;;;3.33;1.10;;;23.40;99.90;;;;;;4933265;29;20217;-70
2022/12/04 08:33:57;;;;;;;3.97;1.00;;;23.30;99.90;;;;;;4937074;29;20193;-77
2022/12/04 08:36:25;;;;;;;6.37;1.00;;;23.20;99.90;;;;;;4933803;29;20192;-73
2022/12/04 08:38:53;;;;;;;5.27;0.80;;;23.00;99.90;;;;;;4934215;29;20169;-75
2022/12/04 08:41:23;;;;;;;5.97;1.13;;;23.00;99.90;;;;;;4933354;29;20192;-73
2022/12/04 08:43:53;;;;;;;4.53;1.20;;;22.80;99.90;;;;;;4932913;29;20192;-71
2022/12/04 08:46:21;;;;;;;4.47;0.90;;;22.60;99.90;;;;;;4933602;29;20185;-70
2022/12/04 08:48:48;;;;;;;2.73;0.80;;;22.60;99.90;;;;;;4936351;29;20220;-70
2022/12/04 08:51:19;;;;;;;3.37;0.70;;;22.50;99.90;;;;;;4927503;29;20220;-70
2022/12/04 08:53:47;;;;;;;2.87;0.80;;;22.40;99.90;;;;;;4936555;29;20188;-70
2022/12/04 08:56:15;;;;;;;5.67;1.30;;;22.30;99.90;;;;;;4937298;29;20188;-71
2022/12/04 08:58:42;;;;;;;5.30;1.27;;;22.20;99.90;;;;;;4936929;29;20172;-70
2022/12/04 09:01:13;;;;;;;9.37;1.20;;;22.10;99.90;;;;;;4936997;29;20177;-72
2022/12/04 09:03:41;;;;;;;3.17;0.80;;;22.00;99.90;;;;;;4936988;29;20184;-70
2022/12/04 09:06:11;;;;;;;5.20;1.30;;;21.90;99.90;;;;;;4917688;29;20184;-71
2022/12/04 09:08:38;;;;;;;4.80;1.00;;;21.80;99.90;;;;;;4918297;29;20178;-70
2022/12/04 09:11:11;;;;;;;4.70;0.93;;;21.80;99.90;;;;;;4918064;29;20236;-71
2022/12/04 09:13:40;;;;;;;4.77;1.03;;;21.70;99.90;;;;;;4917852;29;20699;-70
2022/12/04 09:16:11;;;;;;;3.17;1.07;;;21.60;99.90;;;;;;4936750;29;20651;-71
2022/12/04 09:18:38;;;;;;;3.37;1.07;;;21.50;99.90;;;;;;4935894;29;20199;-70
2022/12/04 09:21:08;;;;;;;2.60;0.90;;;21.40;99.90;;;;;;4935135;29;20200;-79
2022/12/04 09:23:37;;;;;;;2.03;0.80;;;21.40;99.90;;;;;;4930930;29;20669;-69
2022/12/04 09:26:05;;;;;;;5.80;1.30;;;21.40;99.90;;;;;;4937747;29;20180;-70
2022/12/04 09:28:33;;;;;;;4.43;1.07;;;21.30;99.90;;;;;;4937710;29;20183;-70
2022/12/04 09:31:03;;;;;;;4.60;1.00;;;21.30;99.90;;;;;;4937542;29;20216;-73
2022/12/04 09:33:31;;;;;;;6.07;1.20;;;21.20;99.90;;;;;;4936041;29;20622;-69
2022/12/04 09:36:00;;;;;;;5.60;1.30;;;21.20;99.90;;;;;;4937545;29;20215;-81
2022/12/04 09:38:29;;;;;;;3.67;0.97;;;21.10;99.90;;;;;;4936413;29;20177;-69
2022/12/04 09:40:56;;;;;;;5.50;1.23;;;21.10;99.90;;;;;;4937785;29;20188;-69
2022/12/04 09:43:34;;;;;;;2.10;0.80;;;21.00;99.90;;;;;;4938267;29;20606;-73
2022/12/04 09:46:09;;;;;;;3.67;0.90;;;21.10;99.90;;;;;;4937991;29;20240;-69
2022/12/04 09:48:40;;;;;;;7.37;1.03;;;21.00;99.90;;;;;;4937774;29;20708;-69
2022/12/04 09:51:17;;;;;;;5.80;0.90;;;21.00;99.90;;;;;;4938209;29;20277;-69
2022/12/04 09:54:14;;;;;;;4.80;1.10;;;20.90;99.90;;;;;;4937771;29;20180;-73
2022/12/04 09:56:47;;;;;;;5.53;1.13;;;20.90;99.90;;;;;;4937658;29;20178;-70
2022/12/04 09:59:23;;;;;;;3.97;1.10;;;20.90;99.90;;;;;;4936923;29;20186;-69
2022/12/04 10:01:57;;;;;;;4.77;1.10;;;20.80;99.90;;;;;;4937509;29;20231;-69
2022/12/04 10:04:25;;;;;;;3.50;1.10;;;20.80;99.90;;;;;;4937712;29;20187;-69
2022/12/04 10:07:10;;;;;;;2.67;1.00;;;20.70;99.90;;;;;;4936244;29;20192;-69
2022/12/04 10:09:37;;;;;;;2.63;0.80;;;20.70;99.90;;;;;;4936233;29;20621;-69
2022/12/04 10:12:13;;;;;;;3.27;1.30;;;20.70;99.90;;;;;;4937230;29;20291;-69
2022/12/04 10:15:00;;;;;;;4.53;0.90;;;20.60;99.90;;;;;;4937196;29;20586;-69
2022/12/04 10:17:57;;;;;;;3.23;1.00;;;20.50;99.90;;;;;;4943318;29;20186;-69
2022/12/04 10:20:48;;;;;;;7.30;1.13;;;20.60;99.90;;;;;;4939729;29;20186;-68
2022/12/04 10:23:24;;;;;;;3.60;0.90;;;20.50;99.90;;;;;;4937335;29;20161;-69
2022/12/04 10:25:54;;;;;;;4.53;1.40;;;20.50;99.90;;;;;;4935739;29;20191;-69
2022/12/04 10:28:24;;;;;;;5.23;1.47;;;20.50;99.90;;;;;;4937454;29;20180;-69
2022/12/04 10:30:57;;;;;;;4.00;1.00;;;20.40;99.90;;;;;;4935902;29;20230;-69
2022/12/04 10:33:50;;;;;;;4.70;1.37;;;20.30;99.90;;;;;;4938432;29;20185;-69
2022/12/04 10:36:21;;;;;;;7.27;1.73;;;20.40;99.90;;;;;;4937072;29;20179;-68
2022/12/04 10:38:57;;;;;;;4.80;1.07;;;20.20;99.90;;;;;;4937008;29;20212;-68
2022/12/04 10:41:44;;;;;;;5.60;1.07;;;20.20;99.90;;;;;;4937028;29;20188;-69
2022/12/04 10:44:16;;;;;;;4.80;1.00;;;20.10;99.90;;;;;;4935406;29;20181;-68
2022/12/04 10:46:44;;;;;;;7.53;1.53;;;20.20;99.90;;;;;;4936551;29;20231;-68
2022/12/04 10:49:18;;;;;;;3.70;0.80;;;20.20;99.90;;;;;;4936443;29;20228;-68
2022/12/04 10:51:46;;;;;;;3.37;1.20;;;20.10;99.90;;;;;;4936602;29;20598;-68
2022/12/04 10:54:27;;;;;;;7.17;1.97;;;20.10;99.90;;;;;;4936666;29;20192;-69
2022/12/04 10:57:06;;;;;;;3.70;0.83;;;20.10;99.90;;;;;;4936463;29;20185;-68
2022/12/04 10:59:34;;;;;;;5.13;1.17;;;20.10;99.90;;;;;;4936921;29;20650;-69
2022/12/04 11:02:04;;;;;;;3.37;1.00;;;20.00;99.90;;;;;;4936401;29;20222;-70
2022/12/04 11:04:35;;;;;;;3.00;0.93;;;19.90;99.90;;;;;;4936241;29;20705;-70
2022/12/04 11:07:13;;;;;;;4.37;1.00;;;19.90;99.90;;;;;;4936395;29;20299;-69
2022/12/04 11:09:41;;;;;;;4.80;1.10;;;19.90;99.90;;;;;;4936562;29;20187;-69
2022/12/04 11:12:21;;;;;;;6.60;1.57;;;19.80;99.90;;;;;;4935609;29;20204;-69
2022/12/04 11:15:12;;;;;;;2.87;1.10;;;19.80;99.90;;;;;;4935685;29;20212;-69
2022/12/04 11:17:40;;;;;;;4.33;1.30;;;19.80;99.90;;;;;;4936416;29;20193;-69
2022/12/04 11:20:27;;;;;;;5.73;1.00;;;19.80;99.90;;;;;;4936117;29;20323;-69
2022/12/04 11:22:59;;;;;;;5.27;1.10;;;19.60;99.90;;;;;;4936245;29;20219;-71
2022/12/04 11:25:33;;;;;;;4.83;0.87;;;19.60;99.90;;;;;;4919088;29;20192;-68
2022/12/04 11:28:02;;;;;;;8.20;1.00;;;19.50;99.90;;;;;;4936297;29;20180;-68
2022/12/04 11:30:36;;;;;;;7.07;1.33;;;19.50;99.90;;;;;;4936134;29;20183;-69
2022/12/04 11:33:14;;;;;;;3.83;1.07;;;19.40;99.90;;;;;;4936419;29;20184;-79
2022/12/04 11:35:41;;;;;;;3.97;1.20;;;19.40;99.90;;;;;;4936003;29;20180;-75
2022/12/04 11:38:18;;;;;;;4.47;1.10;;;19.40;99.90;;;;;;4936152;29;20221;-79
2022/12/04 11:40:52;;;;;;;5.80;1.17;;;19.30;99.90;;;;;;4934887;29;20187;-77
2022/12/04 11:43:20;;;;;;;5.97;1.10;;;19.30;99.90;;;;;;4936225;29;20520;-74
2022/12/04 11:45:56;;;;;;;3.27;0.83;;;19.20;99.90;;;;;;4935906;29;20186;-76
2022/12/04 11:48:25;;;;;;;2.83;1.13;;;19.10;99.90;;;;;;4936025;29;20254;-79
2022/12/04 11:51:24;;;;;;;7.37;1.30;;;19.20;99.90;;;;;;4936290;29;20204;-73
2022/12/04 11:54:02;;;;;;;6.03;1.40;;;19.20;99.90;;;;;;4936179;29;20663;-76
2022/12/04 11:56:39;;;;;;;4.50;1.07;;;19.10;99.90;;;;;;4936335;29;20263;-76
2022/12/04 11:59:12;;;;;;;6.40;1.00;;;19.10;99.90;;;;;;4918845;29;20187;-72
2022/12/04 12:02:02;;;;;;;6.67;1.23;;;19.10;99.90;;;;;;4936512;29;20173;-69
2022/12/04 12:04:48;;;;;;;6.13;1.27;;;19.10;99.90;;;;;;4936349;29;20176;-70
2022/12/04 12:07:51;;;;;;;5.90;1.20;;;19.20;99.90;;;;;;4918736;29;20190;-79
2022/12/04 12:10:51;;;;;;;7.10;1.10;;;19.20;99.90;;;;;;4856779;29;20192;-73
2022/12/04 12:13:30;;;;;;;5.33;1.73;;;19.20;99.90;;;;;;4925817;29;20196;-69
2022/12/04 12:16:28;;;;;;;4.47;1.20;;;19.20;99.90;;;;;;4936285;29;20267;-76
2022/12/04 12:19:10;;;;;;;2.50;0.90;;;19.20;99.90;;;;;;4936382;29;20308;-69
2022/12/04 12:21:55;;;;;;;4.33;1.10;;;19.20;99.90;;;;;;4934398;29;20180;-69
2022/12/04 12:24:33;;;;;;;6.87;1.50;;;19.20;99.90;;;;;;4939322;29;20176;-70
2022/12/04 12:27:25;;;;;;;8.00;1.60;;;19.20;99.90;;;;;;4939221;29;20243;-69
2022/12/04 12:30:04;;;;;;;8.17;1.20;;;19.10;99.90;;;;;;4939226;29;20181;-70
2022/12/04 12:33:07;;;;;;;3.37;1.27;;;19.00;99.90;;;;;;4939295;29;20268;-69
2022/12/04 12:36:00;;;;;;;6.60;1.00;;;18.80;99.90;;;;;;4939015;29;20177;-69
2022/12/04 12:38:37;;;;;;;6.40;1.27;;;18.70;99.90;;;;;;4939172;29;20196;-69
2022/12/04 12:41:31;;;;;;;6.10;1.17;;;18.60;99.90;;;;;;4939219;29;20180;-69
2022/12/04 12:44:06;;;;;;;4.23;0.97;;;18.60;99.90;;;;;;4938886;29;20202;-69
2022/12/04 12:47:06;;;;;;;7.17;1.33;;;18.70;99.90;;;;;;4939014;29;20196;-69
2022/12/04 12:49:39;;;;;;;5.13;1.17;;;18.70;99.90;;;;;;4938797;29;20228;-69
2022/12/04 12:52:17;;;;;;;4.87;1.30;;;18.60;99.90;;;;;;4938700;29;20227;-69
2022/12/04 12:54:54;;;;;;;5.70;1.27;;;18.50;99.90;;;;;;4939454;29;20624;-69
2022/12/04 12:57:38;;;;;;;5.77;1.30;;;18.40;99.90;;;;;;4938794;29;20199;-69
2022/12/04 13:00:28;;;;;;;5.67;1.37;;;18.30;99.90;;;;;;4938588;29;20673;-69
2022/12/04 13:03:21;;;;;;;5.43;1.40;;;18.30;99.90;;;;;;4938713;29;20184;-69
2022/12/04 13:05:54;;;;;;;4.53;1.20;;;18.20;99.90;;;;;;4938485;29;20271;-68
2022/12/04 13:08:26;;;;;;;5.13;1.10;;;18.40;99.90;;;;;;4938623;29;20186;-69
2022/12/04 13:11:16;;;;;;;5.40;1.13;;;18.40;99.90;;;;;;4938634;29;20218;-69
2022/12/04 13:14:06;;;;;;;8.40;1.27;;;18.60;99.90;;;;;;4938805;29;20195;-70
2022/12/04 13:16:53;;;;;;;6.73;1.40;;;18.70;99.90;;;;;;4937902;29;20231;-68
2022/12/04 13:19:42;;;;;;;3.97;1.47;;;18.70;99.90;;;;;;4937879;29;20219;-68
2022/12/04 13:22:40;;;;;;;5.03;1.30;;;18.60;99.90;;;;;;4938817;29;20184;-69
2022/12/04 13:25:26;;;;;;;7.03;1.57;;;18.50;99.90;;;;;;4938352;29;20178;-69
2022/12/04 13:28:23;;;;;;;3.93;1.20;;;18.30;99.90;;;;;;4937797;29;20212;-69
2022/12/04 13:31:27;;;;;;;4.90;1.07;;;18.20;99.90;;;;;;4938236;29;20678;-69
2022/12/04 13:34:25;;;;;;;5.37;1.63;;;18.10;99.90;;;;;;4936932;29;20224;-69